This is the latest recevied weather packets stored in our database for station/object VE7OTD. If no packets are shown the sender has not sent any weather packets the latest 10 day(s).
| Time | Temp. | Humidity | Pressure | Rain* | Wind** | Luminosity | Snow |
|---|---|---|---|---|---|---|---|
| 1777924750 | 27.22° C | 37% | 1009.3 hPa | 0 mm | - | - | - |
| 1777922940 | 26.67° C | 38% | 1009.5 hPa | 0 mm | - | - | - |
| 1777921138 | 25.56° C | 40% | 1009.6 hPa | 0 mm | - | - | - |
| 1777919323 | 25.56° C | 34% | 1009.9 hPa | 0 mm | - | - | - |
| 1777917495 | 24.44° C | 39% | 1009.9 hPa | 0 mm | - | - | - |
| 1777915693 | 23.33° C | 42% | 1009.9 hPa | 0 mm | - | - | - |
| 1777913878 | 22.78° C | 45% | 1009.9 hPa | 0 mm | - | - | - |
| 1777912063 | 21.67° C | 47% | 1009.9 hPa | 0 mm | - | - | - |
| 1777910263 | 20.56° C | 48% | 1010 hPa | 0 mm | - | - | - |
| 1777908465 | 21.11° C | 46% | 1010.1 hPa | 0 mm | - | - | - |
| 1777906656 | 16.11° C | 59% | 1010 hPa | 0 mm | - | - | - |
| 1777904842 | 12.78° C | 72% | 1010.1 hPa | 0 mm | - | - | - |
| 1777903026 | 11.11° C | 80% | 1009.8 hPa | 0 mm | - | - | - |
| 1777901212 | 10.56° C | 78% | 1009.8 hPa | 0 mm | - | - | - |
| 1777899358 | 10.56° C | 78% | 1009.6 hPa | 0 mm | - | - | - |
| 1777897543 | 11.11° C | 76% | 1009.5 hPa | 0 mm | - | - | - |
| 1777895727 | 11.67° C | 72% | 1009.4 hPa | 0 mm | - | - | - |
| 1777893913 | 12.78° C | 66% | 1009.3 hPa | 0 mm | - | - | - |
| 1777892113 | 13.89° C | 63% | 1009.1 hPa | 0 mm | - | - | - |
| 1777890283 | 14.44° C | 61% | 1009.1 hPa | 0 mm | - | - | - |
| 1777888468 | 13.89° C | 63% | 1009.4 hPa | 0 mm | - | - | - |
| 1777886635 | 14.44° C | 62% | 1009.2 hPa | 0 mm | - | - | - |
| 1777884819 | 14.44° C | 62% | 1009.3 hPa | 0 mm | - | - | - |
| 1777883004 | 15.56° C | 58% | 1009.3 hPa | 0 mm | - | - | - |
| 1777881164 | 17.22° C | 54% | 1009.4 hPa | 0 mm | - | - | - |
* Rain latest hour (hover to see other rain measurements)
** Current wind speed in m/s (hover to see current wind gust speed)